sensor_id;sensor_type;location;lat;lon;timestamp;P1;durP1;ratioP1;P2;durP2;ratioP2
10902;SDS011;5504;47.312;11.060;2023-03-13T00:00:19;11.50;;;8.87;;
10902;SDS011;5504;47.312;11.060;2023-03-13T00:02:44;11.27;;;8.83;;
10902;SDS011;5504;47.312;11.060;2023-03-13T00:05:11;11.40;;;8.97;;
10902;SDS011;5504;47.312;11.060;2023-03-13T00:07:37;10.87;;;8.07;;
10902;SDS011;5504;47.312;11.060;2023-03-13T00:10:04;10.77;;;8.43;;
10902;SDS011;5504;47.312;11.060;2023-03-13T00:12:30;9.23;;;7.67;;
10902;SDS011;5504;47.312;11.060;2023-03-13T00:14:56;11.00;;;8.30;;
10902;SDS011;5504;47.312;11.060;2023-03-13T00:17:22;9.17;;;7.67;;
10902;SDS011;5504;47.312;11.060;2023-03-13T00:19:48;11.17;;;8.70;;
10902;SDS011;5504;47.312;11.060;2023-03-13T00:22:15;13.13;;;9.30;;
10902;SDS011;5504;47.312;11.060;2023-03-13T00:24:40;11.33;;;8.90;;
10902;SDS011;5504;47.312;11.060;2023-03-13T00:27:06;9.97;;;7.80;;
10902;SDS011;5504;47.312;11.060;2023-03-13T00:29:32;11.17;;;8.00;;
10902;SDS011;5504;47.312;11.060;2023-03-13T00:31:59;10.30;;;8.27;;
10902;SDS011;5504;47.312;11.060;2023-03-13T00:34:25;9.43;;;7.73;;
10902;SDS011;5504;47.312;11.060;2023-03-13T00:36:52;10.47;;;7.97;;
10902;SDS011;5504;47.312;11.060;2023-03-13T00:39:19;9.57;;;7.87;;
10902;SDS011;5504;47.312;11.060;2023-03-13T00:41:45;9.97;;;7.70;;
10902;SDS011;5504;47.312;11.060;2023-03-13T00:44:10;10.07;;;7.73;;
10902;SDS011;5504;47.312;11.060;2023-03-13T00:46:36;9.80;;;7.50;;
10902;SDS011;5504;47.312;11.060;2023-03-13T00:49:02;10.63;;;8.23;;
10902;SDS011;5504;47.312;11.060;2023-03-13T00:51:28;10.87;;;8.10;;
10902;SDS011;5504;47.312;11.060;2023-03-13T00:53:55;10.47;;;7.77;;
10902;SDS011;5504;47.312;11.060;2023-03-13T00:56:24;10.97;;;8.20;;
10902;SDS011;5504;47.312;11.060;2023-03-13T00:58:51;10.87;;;7.67;;
10902;SDS011;5504;47.312;11.060;2023-03-13T01:01:18;9.97;;;8.13;;
10902;SDS011;5504;47.312;11.060;2023-03-13T01:03:56;9.77;;;7.50;;
10902;SDS011;5504;47.312;11.060;2023-03-13T01:06:25;9.47;;;7.67;;
10902;SDS011;5504;47.312;11.060;2023-03-13T01:08:52;10.37;;;7.93;;
10902;SDS011;5504;47.312;11.060;2023-03-13T01:11:22;9.63;;;7.37;;
10902;SDS011;5504;47.312;11.060;2023-03-13T01:13:52;10.03;;;7.40;;
10902;SDS011;5504;47.312;11.060;2023-03-13T01:16:20;10.00;;;7.77;;
10902;SDS011;5504;47.312;11.060;2023-03-13T01:18:50;9.40;;;7.00;;
10902;SDS011;5504;47.312;11.060;2023-03-13T01:21:17;9.37;;;7.47;;
10902;SDS011;5504;47.312;11.060;2023-03-13T01:23:44;9.47;;;7.30;;
10902;SDS011;5504;47.312;11.060;2023-03-13T01:26:11;10.63;;;7.87;;
10902;SDS011;5504;47.312;11.060;2023-03-13T01:28:37;9.73;;;7.20;;
10902;SDS011;5504;47.312;11.060;2023-03-13T01:31:16;8.67;;;6.60;;
10902;SDS011;5504;47.312;11.060;2023-03-13T01:33:46;9.07;;;6.53;;
10902;SDS011;5504;47.312;11.060;2023-03-13T01:36:13;9.07;;;7.17;;
10902;SDS011;5504;47.312;11.060;2023-03-13T01:38:39;9.27;;;7.07;;
10902;SDS011;5504;47.312;11.060;2023-03-13T01:41:06;9.10;;;7.20;;
10902;SDS011;5504;47.312;11.060;2023-03-13T01:43:34;10.63;;;7.67;;
10902;SDS011;5504;47.312;11.060;2023-03-13T01:51:53;9.20;;;7.23;;
10902;SDS011;5504;47.312;11.060;2023-03-13T01:57:12;12.37;;;9.13;;
10902;SDS011;5504;47.312;11.060;2023-03-13T02:02:13;13.17;;;9.50;;
10902;SDS011;5504;47.312;11.060;2023-03-13T02:04:41;11.90;;;8.80;;
10902;SDS011;5504;47.312;11.060;2023-03-13T02:07:15;11.93;;;8.97;;
10902;SDS011;5504;47.312;11.060;2023-03-13T02:09:45;12.17;;;9.17;;
10902;SDS011;5504;47.312;11.060;2023-03-13T02:12:17;11.43;;;8.53;;
10902;SDS011;5504;47.312;11.060;2023-03-13T02:14:48;15.67;;;9.83;;
10902;SDS011;5504;47.312;11.060;2023-03-13T02:17:15;11.23;;;8.70;;
10902;SDS011;5504;47.312;11.060;2023-03-13T02:19:42;13.03;;;9.70;;
10902;SDS011;5504;47.312;11.060;2023-03-13T02:27:47;11.67;;;8.90;;
10902;SDS011;5504;47.312;11.060;2023-03-13T02:30:15;12.90;;;9.27;;
10902;SDS011;5504;47.312;11.060;2023-03-13T02:32:40;13.90;;;10.03;;
10902;SDS011;5504;47.312;11.060;2023-03-13T02:35:09;14.13;;;9.70;;
10902;SDS011;5504;47.312;11.060;2023-03-13T02:37:37;14.30;;;9.63;;
10902;SDS011;5504;47.312;11.060;2023-03-13T02:40:05;12.00;;;8.47;;
10902;SDS011;5504;47.312;11.060;2023-03-13T02:42:39;11.03;;;8.63;;
10902;SDS011;5504;47.312;11.060;2023-03-13T02:45:08;10.10;;;7.30;;
10902;SDS011;5504;47.312;11.060;2023-03-13T02:47:34;9.67;;;7.03;;
10902;SDS011;5504;47.312;11.060;2023-03-13T02:50:00;10.30;;;7.50;;
10902;SDS011;5504;47.312;11.060;2023-03-13T02:52:29;10.03;;;7.77;;
10902;SDS011;5504;47.312;11.060;2023-03-13T02:55:16;10.20;;;7.60;;
10902;SDS011;5504;47.312;11.060;2023-03-13T02:57:47;9.07;;;6.90;;
10902;SDS011;5504;47.312;11.060;2023-03-13T03:00:14;7.77;;;6.30;;
10902;SDS011;5504;47.312;11.060;2023-03-13T03:02:41;8.00;;;6.43;;
10902;SDS011;5504;47.312;11.060;2023-03-13T03:05:08;10.23;;;6.67;;
10902;SDS011;5504;47.312;11.060;2023-03-13T03:07:34;9.30;;;6.90;;
10902;SDS011;5504;47.312;11.060;2023-03-13T03:10:00;8.97;;;6.90;;
10902;SDS011;5504;47.312;11.060;2023-03-13T03:12:25;8.87;;;6.70;;
10902;SDS011;5504;47.312;11.060;2023-03-13T03:14:51;9.23;;;6.90;;
10902;SDS011;5504;47.312;11.060;2023-03-13T03:17:17;9.47;;;7.23;;
10902;SDS011;5504;47.312;11.060;2023-03-13T03:19:43;9.87;;;7.50;;
10902;SDS011;5504;47.312;11.060;2023-03-13T03:22:08;10.00;;;7.77;;
10902;SDS011;5504;47.312;11.060;2023-03-13T03:24:34;10.03;;;7.43;;
10902;SDS011;5504;47.312;11.060;2023-03-13T03:27:00;9.17;;;7.13;;
10902;SDS011;5504;47.312;11.060;2023-03-13T03:29:25;9.37;;;7.30;;
10902;SDS011;5504;47.312;11.060;2023-03-13T03:31:52;9.73;;;7.03;;
10902;SDS011;5504;47.312;11.060;2023-03-13T03:34:17;9.00;;;7.10;;
10902;SDS011;5504;47.312;11.060;2023-03-13T03:36:43;9.37;;;7.17;;
10902;SDS011;5504;47.312;11.060;2023-03-13T03:39:09;9.73;;;7.23;;
10902;SDS011;5504;47.312;11.060;2023-03-13T03:41:35;9.40;;;7.10;;
10902;SDS011;5504;47.312;11.060;2023-03-13T03:44:01;10.43;;;7.43;;
10902;SDS011;5504;47.312;11.060;2023-03-13T03:46:28;11.63;;;8.60;;
10902;SDS011;5504;47.312;11.060;2023-03-13T03:48:54;11.87;;;8.50;;
10902;SDS011;5504;47.312;11.060;2023-03-13T03:51:20;11.67;;;9.03;;
10902;SDS011;5504;47.312;11.060;2023-03-13T03:53:46;13.10;;;8.90;;
10902;SDS011;5504;47.312;11.060;2023-03-13T03:56:12;10.33;;;7.60;;
10902;SDS011;5504;47.312;11.060;2023-03-13T03:58:38;10.17;;;8.10;;
10902;SDS011;5504;47.312;11.060;2023-03-13T04:01:03;12.10;;;8.73;;
10902;SDS011;5504;47.312;11.060;2023-03-13T04:03:29;11.77;;;8.17;;
10902;SDS011;5504;47.312;11.060;2023-03-13T04:05:55;10.50;;;7.67;;
10902;SDS011;5504;47.312;11.060;2023-03-13T04:08:21;10.70;;;8.17;;
10902;SDS011;5504;47.312;11.060;2023-03-13T04:10:46;12.63;;;8.80;;
10902;SDS011;5504;47.312;11.060;2023-03-13T04:13:12;11.83;;;8.43;;
10902;SDS011;5504;47.312;11.060;2023-03-13T04:15:38;10.50;;;7.70;;
10902;SDS011;5504;47.312;11.060;2023-03-13T04:18:04;12.63;;;8.73;;
10902;SDS011;5504;47.312;11.060;2023-03-13T04:20:31;11.60;;;8.63;;
10902;SDS011;5504;47.312;11.060;2023-03-13T04:22:56;9.50;;;7.23;;
10902;SDS011;5504;47.312;11.060;2023-03-13T04:25:22;9.97;;;7.13;;
10902;SDS011;5504;47.312;11.060;2023-03-13T04:27:48;9.77;;;7.70;;
10902;SDS011;5504;47.312;11.060;2023-03-13T04:30:14;9.83;;;7.33;;
10902;SDS011;5504;47.312;11.060;2023-03-13T04:32:40;12.30;;;8.73;;
10902;SDS011;5504;47.312;11.060;2023-03-13T04:35:06;11.43;;;8.33;;
10902;SDS011;5504;47.312;11.060;2023-03-13T04:37:32;10.00;;;7.80;;
10902;SDS011;5504;47.312;11.060;2023-03-13T04:39:57;11.33;;;8.17;;
10902;SDS011;5504;47.312;11.060;2023-03-13T04:42:23;10.17;;;7.53;;
10902;SDS011;5504;47.312;11.060;2023-03-13T04:44:49;12.43;;;8.83;;
10902;SDS011;5504;47.312;11.060;2023-03-13T04:47:15;13.07;;;9.43;;
10902;SDS011;5504;47.312;11.060;2023-03-13T04:49:40;13.47;;;9.40;;
10902;SDS011;5504;47.312;11.060;2023-03-13T04:52:06;11.57;;;8.63;;
10902;SDS011;5504;47.312;11.060;2023-03-13T04:54:32;11.87;;;8.43;;
10902;SDS011;5504;47.312;11.060;2023-03-13T04:56:57;10.97;;;8.07;;
10902;SDS011;5504;47.312;11.060;2023-03-13T04:59:23;14.30;;;9.83;;
10902;SDS011;5504;47.312;11.060;2023-03-13T05:01:48;13.77;;;9.97;;
10902;SDS011;5504;47.312;11.060;2023-03-13T05:04:14;15.77;;;10.17;;
10902;SDS011;5504;47.312;11.060;2023-03-13T05:06:40;13.90;;;10.13;;
10902;SDS011;5504;47.312;11.060;2023-03-13T05:09:06;14.70;;;10.10;;
10902;SDS011;5504;47.312;11.060;2023-03-13T05:11:32;12.07;;;8.80;;
10902;SDS011;5504;47.312;11.060;2023-03-13T05:13:57;13.20;;;9.23;;
10902;SDS011;5504;47.312;11.060;2023-03-13T05:16:23;11.97;;;8.93;;
10902;SDS011;5504;47.312;11.060;2023-03-13T05:18:49;11.27;;;8.43;;
10902;SDS011;5504;47.312;11.060;2023-03-13T05:21:15;11.17;;;8.07;;
10902;SDS011;5504;47.312;11.060;2023-03-13T05:23:40;12.40;;;8.93;;
10902;SDS011;5504;47.312;11.060;2023-03-13T05:26:06;13.03;;;9.43;;
10902;SDS011;5504;47.312;11.060;2023-03-13T05:28:32;13.17;;;10.00;;
10902;SDS011;5504;47.312;11.060;2023-03-13T05:30:57;13.50;;;9.87;;
10902;SDS011;5504;47.312;11.060;2023-03-13T05:33:23;13.47;;;10.00;;
10902;SDS011;5504;47.312;11.060;2023-03-13T05:35:49;13.00;;;9.70;;
10902;SDS011;5504;47.312;11.060;2023-03-13T05:38:14;13.03;;;9.90;;
10902;SDS011;5504;47.312;11.060;2023-03-13T05:40:40;12.97;;;9.57;;
10902;SDS011;5504;47.312;11.060;2023-03-13T05:43:06;13.80;;;9.87;;
10902;SDS011;5504;47.312;11.060;2023-03-13T05:45:32;12.50;;;8.90;;
10902;SDS011;5504;47.312;11.060;2023-03-13T05:47:57;13.20;;;9.17;;
10902;SDS011;5504;47.312;11.060;2023-03-13T05:50:23;13.67;;;10.03;;
10902;SDS011;5504;47.312;11.060;2023-03-13T05:52:49;16.47;;;11.03;;
10902;SDS011;5504;47.312;11.060;2023-03-13T05:55:15;15.00;;;10.57;;
10902;SDS011;5504;47.312;11.060;2023-03-13T05:57:45;16.17;;;11.13;;
10902;SDS011;5504;47.312;11.060;2023-03-13T06:00:13;14.27;;;10.50;;
10902;SDS011;5504;47.312;11.060;2023-03-13T06:02:40;12.23;;;9.17;;
10902;SDS011;5504;47.312;11.060;2023-03-13T06:05:07;12.40;;;9.10;;
10902;SDS011;5504;47.312;11.060;2023-03-13T06:07:34;12.17;;;8.83;;
10902;SDS011;5504;47.312;11.060;2023-03-13T06:09:59;11.13;;;8.00;;
10902;SDS011;5504;47.312;11.060;2023-03-13T06:12:25;9.33;;;7.40;;
10902;SDS011;5504;47.312;11.060;2023-03-13T06:14:51;13.67;;;11.20;;
10902;SDS011;5504;47.312;11.060;2023-03-13T06:17:16;13.40;;;11.23;;
10902;SDS011;5504;47.312;11.060;2023-03-13T06:19:42;11.10;;;8.90;;
10902;SDS011;5504;47.312;11.060;2023-03-13T06:22:08;14.50;;;10.83;;
10902;SDS011;5504;47.312;11.060;2023-03-13T06:24:33;14.63;;;10.57;;
10902;SDS011;5504;47.312;11.060;2023-03-13T06:27:00;12.80;;;9.53;;
10902;SDS011;5504;47.312;11.060;2023-03-13T06:29:25;12.97;;;8.87;;
10902;SDS011;5504;47.312;11.060;2023-03-13T06:31:51;13.60;;;9.67;;
10902;SDS011;5504;47.312;11.060;2023-03-13T06:34:17;13.33;;;9.93;;
10902;SDS011;5504;47.312;11.060;2023-03-13T06:36:43;12.63;;;9.60;;
10902;SDS011;5504;47.312;11.060;2023-03-13T06:39:10;11.77;;;8.77;;
10902;SDS011;5504;47.312;11.060;2023-03-13T06:41:36;12.00;;;8.97;;
10902;SDS011;5504;47.312;11.060;2023-03-13T06:44:02;12.13;;;8.50;;
10902;SDS011;5504;47.312;11.060;2023-03-13T06:46:28;9.97;;;8.37;;
10902;SDS011;5504;47.312;11.060;2023-03-13T06:48:54;9.63;;;7.60;;
10902;SDS011;5504;47.312;11.060;2023-03-13T06:51:20;9.27;;;6.90;;
10902;SDS011;5504;47.312;11.060;2023-03-13T06:53:46;7.23;;;5.87;;
10902;SDS011;5504;47.312;11.060;2023-03-13T06:56:13;7.87;;;5.83;;
10902;SDS011;5504;47.312;11.060;2023-03-13T06:58:39;5.33;;;4.53;;
10902;SDS011;5504;47.312;11.060;2023-03-13T07:01:14;8.07;;;6.30;;
10902;SDS011;5504;47.312;11.060;2023-03-13T07:03:41;10.17;;;6.73;;
10902;SDS011;5504;47.312;11.060;2023-03-13T07:06:08;8.10;;;6.57;;
10902;SDS011;5504;47.312;11.060;2023-03-13T07:08:35;7.33;;;5.60;;
10902;SDS011;5504;47.312;11.060;2023-03-13T07:11:02;7.20;;;5.80;;
10902;SDS011;5504;47.312;11.060;2023-03-13T07:13:30;6.70;;;5.20;;
10902;SDS011;5504;47.312;11.060;2023-03-13T07:16:03;3.70;;;3.27;;
10902;SDS011;5504;47.312;11.060;2023-03-13T07:18:31;8.90;;;6.77;;
10902;SDS011;5504;47.312;11.060;2023-03-13T07:20:58;8.73;;;7.20;;
10902;SDS011;5504;47.312;11.060;2023-03-13T07:23:26;8.23;;;6.20;;
10902;SDS011;5504;47.312;11.060;2023-03-13T07:25:53;8.70;;;6.83;;
10902;SDS011;5504;47.312;11.060;2023-03-13T07:28:20;7.63;;;6.37;;
10902;SDS011;5504;47.312;11.060;2023-03-13T07:30:46;7.47;;;6.23;;
10902;SDS011;5504;47.312;11.060;2023-03-13T07:33:13;8.90;;;6.17;;
10902;SDS011;5504;47.312;11.060;2023-03-13T07:35:39;7.03;;;5.67;;
10902;SDS011;5504;47.312;11.060;2023-03-13T07:38:05;6.10;;;5.33;;
10902;SDS011;5504;47.312;11.060;2023-03-13T07:40:31;10.33;;;7.67;;
10902;SDS011;5504;47.312;11.060;2023-03-13T07:42:56;13.77;;;10.63;;
10902;SDS011;5504;47.312;11.060;2023-03-13T07:45:22;15.30;;;11.57;;
10902;SDS011;5504;47.312;11.060;2023-03-13T07:47:47;14.07;;;11.03;;
10902;SDS011;5504;47.312;11.060;2023-03-13T07:50:13;15.70;;;11.80;;
10902;SDS011;5504;47.312;11.060;2023-03-13T07:52:39;15.07;;;10.80;;
10902;SDS011;5504;47.312;11.060;2023-03-13T07:55:05;13.27;;;10.23;;
10902;SDS011;5504;47.312;11.060;2023-03-13T07:57:30;11.80;;;9.67;;
10902;SDS011;5504;47.312;11.060;2023-03-13T07:59:56;10.80;;;8.70;;
10902;SDS011;5504;47.312;11.060;2023-03-13T08:02:22;11.27;;;8.67;;
10902;SDS011;5504;47.312;11.060;2023-03-13T08:04:50;11.13;;;8.67;;
10902;SDS011;5504;47.312;11.060;2023-03-13T08:07:16;11.40;;;8.30;;
10902;SDS011;5504;47.312;11.060;2023-03-13T08:09:42;9.70;;;8.10;;
10902;SDS011;5504;47.312;11.060;2023-03-13T08:12:08;11.53;;;9.30;;
10902;SDS011;5504;47.312;11.060;2023-03-13T08:14:34;14.67;;;11.60;;
10902;SDS011;5504;47.312;11.060;2023-03-13T08:16:59;12.77;;;10.47;;
10902;SDS011;5504;47.312;11.060;2023-03-13T08:19:25;12.77;;;9.60;;
10902;SDS011;5504;47.312;11.060;2023-03-13T08:21:50;10.80;;;8.13;;
10902;SDS011;5504;47.312;11.060;2023-03-13T08:24:16;10.23;;;8.57;;
10902;SDS011;5504;47.312;11.060;2023-03-13T08:26:42;11.00;;;8.37;;
10902;SDS011;5504;47.312;11.060;2023-03-13T08:29:11;11.03;;;8.67;;
10902;SDS011;5504;47.312;11.060;2023-03-13T08:34:09;9.40;;;8.17;;
10902;SDS011;5504;47.312;11.060;2023-03-13T08:36:36;10.47;;;7.53;;
10902;SDS011;5504;47.312;11.060;2023-03-13T08:39:04;8.73;;;7.40;;
10902;SDS011;5504;47.312;11.060;2023-03-13T08:41:32;8.87;;;7.47;;
10902;SDS011;5504;47.312;11.060;2023-03-13T08:44:04;14.90;;;9.33;;
10902;SDS011;5504;47.312;11.060;2023-03-13T08:46:32;5.93;;;4.80;;
10902;SDS011;5504;47.312;11.060;2023-03-13T08:49:00;6.30;;;4.40;;
10902;SDS011;5504;47.312;11.060;2023-03-13T08:51:26;4.40;;;4.00;;
10902;SDS011;5504;47.312;11.060;2023-03-13T08:53:53;3.60;;;3.30;;
10902;SDS011;5504;47.312;11.060;2023-03-13T08:56:21;4.03;;;3.63;;
10902;SDS011;5504;47.312;11.060;2023-03-13T08:58:52;3.67;;;3.37;;
10902;SDS011;5504;47.312;11.060;2023-03-13T09:01:20;5.13;;;4.63;;
10902;SDS011;5504;47.312;11.060;2023-03-13T09:03:47;4.40;;;4.03;;
10902;SDS011;5504;47.312;11.060;2023-03-13T09:06:13;6.77;;;4.43;;
10902;SDS011;5504;47.312;11.060;2023-03-13T09:08:39;4.60;;;4.20;;
10902;SDS011;5504;47.312;11.060;2023-03-13T09:11:07;4.67;;;4.27;;
10902;SDS011;5504;47.312;11.060;2023-03-13T09:13:36;3.80;;;3.50;;
10902;SDS011;5504;47.312;11.060;2023-03-13T09:16:08;3.40;;;3.10;;
10902;SDS011;5504;47.312;11.060;2023-03-13T09:18:36;3.90;;;3.50;;
10902;SDS011;5504;47.312;11.060;2023-03-13T09:21:02;4.70;;;3.27;;
10902;SDS011;5504;47.312;11.060;2023-03-13T09:23:30;4.83;;;3.60;;
10902;SDS011;5504;47.312;11.060;2023-03-13T09:25:56;4.40;;;4.00;;
10902;SDS011;5504;47.312;11.060;2023-03-13T09:28:23;6.33;;;3.97;;
10902;SDS011;5504;47.312;11.060;2023-03-13T09:30:50;5.57;;;4.20;;
10902;SDS011;5504;47.312;11.060;2023-03-13T09:33:16;6.20;;;5.50;;
10902;SDS011;5504;47.312;11.060;2023-03-13T09:35:43;6.30;;;4.40;;
10902;SDS011;5504;47.312;11.060;2023-03-13T09:38:14;6.70;;;4.20;;
10902;SDS011;5504;47.312;11.060;2023-03-13T09:40:44;5.60;;;3.10;;
10902;SDS011;5504;47.312;11.060;2023-03-13T09:43:18;3.07;;;2.73;;
10902;SDS011;5504;47.312;11.060;2023-03-13T09:45:52;3.00;;;2.70;;
10902;SDS011;5504;47.312;11.060;2023-03-13T09:51:06;3.27;;;2.97;;
10902;SDS011;5504;47.312;11.060;2023-03-13T09:56:16;6.57;;;3.53;;
10902;SDS011;5504;47.312;11.060;2023-03-13T09:58:49;4.40;;;3.60;;
10902;SDS011;5504;47.312;11.060;2023-03-13T10:01:27;4.57;;;3.40;;
10902;SDS011;5504;47.312;11.060;2023-03-13T10:03:57;3.80;;;3.13;;
10902;SDS011;5504;47.312;11.060;2023-03-13T10:06:26;4.63;;;3.57;;
10902;SDS011;5504;47.312;11.060;2023-03-13T10:08:57;5.20;;;3.40;;
10902;SDS011;5504;47.312;11.060;2023-03-13T10:11:44;3.33;;;3.00;;
10902;SDS011;5504;47.312;11.060;2023-03-13T10:14:28;4.53;;;3.40;;
10902;SDS011;5504;47.312;11.060;2023-03-13T10:17:06;3.73;;;3.20;;
10902;SDS011;5504;47.312;11.060;2023-03-13T10:19:43;4.13;;;3.03;;
10902;SDS011;5504;47.312;11.060;2023-03-13T10:22:16;4.57;;;4.03;;
10902;SDS011;5504;47.312;11.060;2023-03-13T10:27:22;3.90;;;3.13;;
10902;SDS011;5504;47.312;11.060;2023-03-13T10:29:47;3.90;;;3.13;;
10902;SDS011;5504;47.312;11.060;2023-03-13T10:32:14;7.23;;;3.10;;
10902;SDS011;5504;47.312;11.060;2023-03-13T10:34:49;2.53;;;2.33;;
10902;SDS011;5504;47.312;11.060;2023-03-13T10:39:56;2.00;;;1.80;;
10902;SDS011;5504;47.312;11.060;2023-03-13T10:42:47;2.37;;;2.00;;
10902;SDS011;5504;47.312;11.060;2023-03-13T10:45:14;2.37;;;2.17;;
10902;SDS011;5504;47.312;11.060;2023-03-13T10:47:41;3.00;;;2.20;;
10902;SDS011;5504;47.312;11.060;2023-03-13T10:50:11;2.63;;;2.00;;
10902;SDS011;5504;47.312;11.060;2023-03-13T10:52:43;1.83;;;1.50;;
10902;SDS011;5504;47.312;11.060;2023-03-13T10:55:11;1.70;;;1.60;;
10902;SDS011;5504;47.312;11.060;2023-03-13T10:57:41;1.63;;;1.50;;
10902;SDS011;5504;47.312;11.060;2023-03-13T11:02:59;2.10;;;1.50;;
10902;SDS011;5504;47.312;11.060;2023-03-13T11:05:29;1.60;;;1.50;;
10902;SDS011;5504;47.312;11.060;2023-03-13T11:07:55;1.70;;;1.60;;
10902;SDS011;5504;47.312;11.060;2023-03-13T11:10:22;2.10;;;1.90;;
10902;SDS011;5504;47.312;11.060;2023-03-13T11:12:56;3.43;;;1.80;;
10902;SDS011;5504;47.312;11.060;2023-03-13T11:15:45;1.70;;;1.60;;
10902;SDS011;5504;47.312;11.060;2023-03-13T11:18:35;3.33;;;1.60;;
10902;SDS011;5504;47.312;11.060;2023-03-13T11:21:22;2.47;;;1.50;;
10902;SDS011;5504;47.312;11.060;2023-03-13T11:24:11;1.73;;;1.50;;
10902;SDS011;5504;47.312;11.060;2023-03-13T11:27:45;1.77;;;1.60;;
10902;SDS011;5504;47.312;11.060;2023-03-13T11:32:34;2.10;;;1.40;;
10902;SDS011;5504;47.312;11.060;2023-03-13T11:35:10;1.70;;;1.30;;
10902;SDS011;5504;47.312;11.060;2023-03-13T11:37:43;3.30;;;1.33;;
10902;SDS011;5504;47.312;11.060;2023-03-13T11:40:16;1.60;;;1.50;;
10902;SDS011;5504;47.312;11.060;2023-03-13T11:54:38;3.63;;;1.60;;
10902;SDS011;5504;47.312;11.060;2023-03-13T12:05:48;2.40;;;1.50;;
10902;SDS011;5504;47.312;11.060;2023-03-13T12:08:18;2.65;;;1.70;;
10902;SDS011;5504;47.312;11.060;2023-03-13T12:13:37;1.53;;;1.43;;
10902;SDS011;5504;47.312;11.060;2023-03-13T12:16:14;2.20;;;1.40;;
10902;SDS011;5504;47.312;11.060;2023-03-13T12:18:43;1.80;;;1.63;;
10902;SDS011;5504;47.312;11.060;2023-03-13T12:21:13;1.90;;;1.57;;
10902;SDS011;5504;47.312;11.060;2023-03-13T12:24:28;2.97;;;1.70;;
10902;SDS011;5504;47.312;11.060;2023-03-13T12:26:34;2.27;;;1.73;;
10902;SDS011;5504;47.312;11.060;2023-03-13T12:31:56;1.73;;;1.57;;
10902;SDS011;5504;47.312;11.060;2023-03-13T12:37:27;2.73;;;1.90;;
10902;SDS011;5504;47.312;11.060;2023-03-13T12:40:12;3.57;;;3.00;;
10902;SDS011;5504;47.312;11.060;2023-03-13T12:42:48;4.30;;;3.07;;
10902;SDS011;5504;47.312;11.060;2023-03-13T12:45:21;3.03;;;1.33;;
10902;SDS011;5504;47.312;11.060;2023-03-13T12:59:10;4.00;;;1.60;;
10902;SDS011;5504;47.312;11.060;2023-03-13T13:01:43;2.03;;;1.30;;
10902;SDS011;5504;47.312;11.060;2023-03-13T13:04:24;2.63;;;1.10;;
10902;SDS011;5504;47.312;11.060;2023-03-13T13:07:32;1.70;;;1.10;;
10902;SDS011;5504;47.312;11.060;2023-03-13T13:12:39;1.33;;;1.20;;
10902;SDS011;5504;47.312;11.060;2023-03-13T13:15:18;2.90;;;1.10;;
10902;SDS011;5504;47.312;11.060;2023-03-13T13:20:43;2.07;;;1.20;;
10902;SDS011;5504;47.312;11.060;2023-03-13T13:23:38;1.47;;;1.37;;
10902;SDS011;5504;47.312;11.060;2023-03-13T13:36:55;2.15;;;1.00;;
10902;SDS011;5504;47.312;11.060;2023-03-13T13:41:59;1.45;;;1.10;;
10902;SDS011;5504;47.312;11.060;2023-03-13T13:44:25;1.30;;;1.10;;
10902;SDS011;5504;47.312;11.060;2023-03-13T13:46:53;1.48;;;1.00;;
10902;SDS011;5504;47.312;11.060;2023-03-13T13:49:29;1.42;;;0.98;;
10902;SDS011;5504;47.312;11.060;2023-03-13T13:59:49;2.78;;;1.42;;
10902;SDS011;5504;47.312;11.060;2023-03-13T14:02:24;1.50;;;1.40;;
10902;SDS011;5504;47.312;11.060;2023-03-13T14:05:00;1.95;;;1.48;;
10902;SDS011;5504;47.312;11.060;2023-03-13T14:12:37;2.10;;;1.15;;
10902;SDS011;5504;47.312;11.060;2023-03-13T14:15:06;1.40;;;1.30;;
10902;SDS011;5504;47.312;11.060;2023-03-13T14:17:39;2.85;;;2.15;;
10902;SDS011;5504;47.312;11.060;2023-03-13T14:22:51;3.78;;;3.13;;
10902;SDS011;5504;47.312;11.060;2023-03-13T14:25:19;4.65;;;2.92;;
10902;SDS011;5504;47.312;11.060;2023-03-13T14:27:46;1.98;;;1.50;;
10902;SDS011;5504;47.312;11.060;2023-03-13T14:30:14;1.30;;;1.20;;
10902;SDS011;5504;47.312;11.060;2023-03-13T14:32:42;1.67;;;1.17;;
10902;SDS011;5504;47.312;11.060;2023-03-13T14:35:10;1.50;;;1.40;;
10902;SDS011;5504;47.312;11.060;2023-03-13T14:37:42;1.63;;;1.33;;
10902;SDS011;5504;47.312;11.060;2023-03-13T14:40:18;1.95;;;1.20;;
10902;SDS011;5504;47.312;11.060;2023-03-13T14:42:44;1.50;;;1.38;;
10902;SDS011;5504;47.312;11.060;2023-03-13T14:48:08;1.30;;;1.20;;
10902;SDS011;5504;47.312;11.060;2023-03-13T14:50:36;1.73;;;1.10;;
10902;SDS011;5504;47.312;11.060;2023-03-13T14:53:02;1.60;;;1.10;;
10902;SDS011;5504;47.312;11.060;2023-03-13T14:55:35;3.13;;;1.17;;
10902;SDS011;5504;47.312;11.060;2023-03-13T15:00:46;2.80;;;1.10;;
10902;SDS011;5504;47.312;11.060;2023-03-13T15:08:29;2.38;;;1.05;;
10902;SDS011;5504;47.312;11.060;2023-03-13T15:10:55;2.05;;;1.30;;
10902;SDS011;5504;47.312;11.060;2023-03-13T15:13:34;2.15;;;1.20;;
10902;SDS011;5504;47.312;11.060;2023-03-13T15:16:01;2.83;;;1.40;;
10902;SDS011;5504;47.312;11.060;2023-03-13T15:18:37;2.25;;;1.35;;
10902;SDS011;5504;47.312;11.060;2023-03-13T15:23:40;1.55;;;1.20;;
10902;SDS011;5504;47.312;11.060;2023-03-13T15:26:09;2.83;;;1.30;;
10902;SDS011;5504;47.312;11.060;2023-03-13T15:28:35;2.65;;;1.33;;
10902;SDS011;5504;47.312;11.060;2023-03-13T15:31:01;2.13;;;1.17;;
10902;SDS011;5504;47.312;11.060;2023-03-13T15:33:27;4.07;;;1.42;;
10902;SDS011;5504;47.312;11.060;2023-03-13T15:35:53;2.47;;;1.30;;
10902;SDS011;5504;47.312;11.060;2023-03-13T15:38:21;2.85;;;1.30;;
10902;SDS011;5504;47.312;11.060;2023-03-13T15:40:49;2.72;;;1.23;;
10902;SDS011;5504;47.312;11.060;2023-03-13T15:43:15;1.40;;;1.20;;
10902;SDS011;5504;47.312;11.060;2023-03-13T15:45:43;1.73;;;1.05;;
10902;SDS011;5504;47.312;11.060;2023-03-13T15:50:55;4.03;;;1.20;;
10902;SDS011;5504;47.312;11.060;2023-03-13T15:53:33;3.13;;;2.33;;
10902;SDS011;5504;47.312;11.060;2023-03-13T15:55:59;3.20;;;1.60;;
10902;SDS011;5504;47.312;11.060;2023-03-13T15:58:27;3.15;;;1.30;;
10902;SDS011;5504;47.312;11.060;2023-03-13T16:00:54;3.20;;;1.40;;
10902;SDS011;5504;47.312;11.060;2023-03-13T16:03:21;1.93;;;1.50;;
10902;SDS011;5504;47.312;11.060;2023-03-13T16:05:49;2.07;;;1.30;;
10902;SDS011;5504;47.312;11.060;2023-03-13T16:08:17;3.97;;;1.30;;
10902;SDS011;5504;47.312;11.060;2023-03-13T16:10:53;5.33;;;1.53;;
10902;SDS011;5504;47.312;11.060;2023-03-13T16:13:19;1.40;;;1.30;;
10902;SDS011;5504;47.312;11.060;2023-03-13T16:15:45;4.57;;;2.80;;
10902;SDS011;5504;47.312;11.060;2023-03-13T16:18:20;3.90;;;2.17;;
10902;SDS011;5504;47.312;11.060;2023-03-13T16:20:47;1.60;;;1.50;;
10902;SDS011;5504;47.312;11.060;2023-03-13T16:23:16;3.23;;;1.70;;
10902;SDS011;5504;47.312;11.060;2023-03-13T16:25:42;3.37;;;1.70;;
10902;SDS011;5504;47.312;11.060;2023-03-13T16:28:10;3.17;;;1.60;;
10902;SDS011;5504;47.312;11.060;2023-03-13T16:30:37;2.50;;;1.30;;
10902;SDS011;5504;47.312;11.060;2023-03-13T16:33:08;1.87;;;1.40;;
10902;SDS011;5504;47.312;11.060;2023-03-13T16:35:34;4.17;;;1.70;;
10902;SDS011;5504;47.312;11.060;2023-03-13T16:38:01;4.57;;;1.40;;
10902;SDS011;5504;47.312;11.060;2023-03-13T16:40:30;2.23;;;1.50;;
10902;SDS011;5504;47.312;11.060;2023-03-13T16:42:57;4.43;;;3.90;;
10902;SDS011;5504;47.312;11.060;2023-03-13T16:45:23;4.23;;;3.50;;
10902;SDS011;5504;47.312;11.060;2023-03-13T16:47:49;3.00;;;2.00;;
10902;SDS011;5504;47.312;11.060;2023-03-13T16:52:50;1.70;;;1.40;;
10902;SDS011;5504;47.312;11.060;2023-03-13T16:55:17;2.03;;;1.40;;
10902;SDS011;5504;47.312;11.060;2023-03-13T16:57:43;1.83;;;1.43;;